sensor_id;sensor_type;location;lat;lon;timestamp;pressure;altitude;pressure_sealevel;temperature;humidity
76352;BME280;65179;47.786;19.138;2023-04-01T00:01:28;98894.47;;;10.55;80.17
76352;BME280;65179;47.786;19.138;2023-04-01T00:03:53;98893.84;;;10.48;79.13
76352;BME280;65179;47.786;19.138;2023-04-01T00:06:19;98887.41;;;10.54;79.96
76352;BME280;65179;47.786;19.138;2023-04-01T00:08:45;98885.75;;;10.53;80.01
76352;BME280;65179;47.786;19.138;2023-04-01T00:11:11;98885.19;;;10.51;79.29
76352;BME280;65179;47.786;19.138;2023-04-01T00:13:36;98892.28;;;10.52;78.06
76352;BME280;65179;47.786;19.138;2023-04-01T00:16:02;98892.78;;;10.49;78.52
76352;BME280;65179;47.786;19.138;2023-04-01T00:18:29;98894.84;;;10.42;77.94
76352;BME280;65179;47.786;19.138;2023-04-01T00:20:55;98899.22;;;10.43;78.20
76352;BME280;65179;47.786;19.138;2023-04-01T00:23:21;98901.31;;;10.36;77.95
76352;BME280;65179;47.786;19.138;2023-04-01T00:25:47;98901.81;;;10.33;77.94
76352;BME280;65179;47.786;19.138;2023-04-01T00:28:14;98900.50;;;10.36;77.25
76352;BME280;65179;47.786;19.138;2023-04-01T00:30:40;98902.44;;;10.40;77.59
76352;BME280;65179;47.786;19.138;2023-04-01T00:33:06;98902.25;;;10.47;77.53
76352;BME280;65179;47.786;19.138;2023-04-01T00:35:31;98906.84;;;10.46;77.45
76352;BME280;65179;47.786;19.138;2023-04-01T00:37:58;98911.16;;;10.42;77.62
76352;BME280;65179;47.786;19.138;2023-04-01T00:42:54;98910.66;;;10.45;77.83
76352;BME280;65179;47.786;19.138;2023-04-01T00:45:40;98911.06;;;10.37;77.78
76352;BME280;65179;47.786;19.138;2023-04-01T00:48:22;98911.41;;;10.41;77.77
76352;BME280;65179;47.786;19.138;2023-04-01T00:51:17;98906.19;;;10.34;77.94
76352;BME280;65179;47.786;19.138;2023-04-01T00:53:47;98910.84;;;10.39;78.04
76352;BME280;65179;47.786;19.138;2023-04-01T00:56:25;98905.09;;;10.35;78.07
76352;BME280;65179;47.786;19.138;2023-04-01T00:59:00;98904.09;;;10.41;77.75
76352;BME280;65179;47.786;19.138;2023-04-01T01:01:26;98899.44;;;10.37;78.08
76352;BME280;65179;47.786;19.138;2023-04-01T01:03:53;98902.44;;;10.40;77.99
76352;BME280;65179;47.786;19.138;2023-04-01T01:16:58;98898.81;;;10.30;77.99
76352;BME280;65179;47.786;19.138;2023-04-01T01:19:36;98892.50;;;10.24;78.68
76352;BME280;65179;47.786;19.138;2023-04-01T01:22:37;98897.41;;;10.27;78.38
76352;BME280;65179;47.786;19.138;2023-04-01T01:25:23;98882.44;;;10.25;78.65
76352;BME280;65179;47.786;19.138;2023-04-01T01:30:48;98898.44;;;10.21;78.68
76352;BME280;65179;47.786;19.138;2023-04-01T01:33:25;98897.31;;;10.17;79.09
76352;BME280;65179;47.786;19.138;2023-04-01T01:35:57;98885.63;;;10.17;79.41
76352;BME280;65179;47.786;19.138;2023-04-01T01:38:28;98882.66;;;10.18;79.18
76352;BME280;65179;47.786;19.138;2023-04-01T01:40:57;98887.28;;;10.18;79.36
76352;BME280;65179;47.786;19.138;2023-04-01T01:43:33;98894.03;;;10.15;79.47
76352;BME280;65179;47.786;19.138;2023-04-01T01:46:04;98880.84;;;10.07;79.86
76352;BME280;65179;47.786;19.138;2023-04-01T01:48:32;98890.38;;;10.10;79.66
76352;BME280;65179;47.786;19.138;2023-04-01T01:50:58;98886.84;;;10.09;79.65
76352;BME280;65179;47.786;19.138;2023-04-01T01:53:24;98879.72;;;10.03;79.72
76352;BME280;65179;47.786;19.138;2023-04-01T01:55:50;98890.66;;;10.08;79.80
76352;BME280;65179;47.786;19.138;2023-04-01T01:58:23;98893.38;;;10.08;79.64
76352;BME280;65179;47.786;19.138;2023-04-01T02:00:54;98895.25;;;10.08;79.81
76352;BME280;65179;47.786;19.138;2023-04-01T02:03:23;98903.47;;;10.13;79.76
76352;BME280;65179;47.786;19.138;2023-04-01T02:05:52;98902.66;;;10.12;79.78
76352;BME280;65179;47.786;19.138;2023-04-01T02:08:27;98901.84;;;10.12;79.71
76352;BME280;65179;47.786;19.138;2023-04-01T02:11:01;98905.09;;;10.14;79.55
76352;BME280;65179;47.786;19.138;2023-04-01T02:13:41;98901.59;;;10.13;79.47
76352;BME280;65179;47.786;19.138;2023-04-01T02:16:20;98902.66;;;10.12;79.82
76352;BME280;65179;47.786;19.138;2023-04-01T02:18:49;98893.09;;;10.10;79.70
76352;BME280;65179;47.786;19.138;2023-04-01T02:21:20;98896.06;;;10.08;79.72
76352;BME280;65179;47.786;19.138;2023-04-01T02:23:46;98883.56;;;10.07;79.84
76352;BME280;65179;47.786;19.138;2023-04-01T02:26:12;98889.00;;;10.07;79.58
76352;BME280;65179;47.786;19.138;2023-04-01T02:28:40;98892.22;;;10.04;79.61
76352;BME280;65179;47.786;19.138;2023-04-01T02:31:10;98890.34;;;10.05;79.65
76352;BME280;65179;47.786;19.138;2023-04-01T02:33:38;98884.66;;;10.06;79.77
76352;BME280;65179;47.786;19.138;2023-04-01T02:36:04;98883.56;;;10.07;79.54
76352;BME280;65179;47.786;19.138;2023-04-01T02:38:29;98879.72;;;10.03;79.78
76352;BME280;65179;47.786;19.138;2023-04-01T02:41:00;98875.88;;;9.99;79.76
76352;BME280;65179;47.786;19.138;2023-04-01T02:43:27;98874.50;;;9.97;79.84
76352;BME280;65179;47.786;19.138;2023-04-01T02:45:53;98878.97;;;9.86;79.98
76352;BME280;65179;47.786;19.138;2023-04-01T02:48:19;98873.25;;;9.82;80.26
76352;BME280;65179;47.786;19.138;2023-04-01T02:50:45;98868.84;;;9.76;80.70
76352;BME280;65179;47.786;19.138;2023-04-01T02:53:10;98862.78;;;9.69;80.81
76352;BME280;65179;47.786;19.138;2023-04-01T02:55:37;98855.88;;;9.62;80.81
76352;BME280;65179;47.786;19.138;2023-04-01T02:58:03;98861.25;;;9.57;80.83
76352;BME280;65179;47.786;19.138;2023-04-01T03:00:28;98860.69;;;9.55;81.01
76352;BME280;65179;47.786;19.138;2023-04-01T03:02:54;98859.72;;;9.44;81.25
76352;BME280;65179;47.786;19.138;2023-04-01T03:05:20;98858.34;;;9.42;81.23
76352;BME280;65179;47.786;19.138;2023-04-01T03:07:46;98867.44;;;9.36;81.30
76352;BME280;65179;47.786;19.138;2023-04-01T03:10:11;98873.37;;;9.33;81.30
76352;BME280;65179;47.786;19.138;2023-04-01T03:12:37;98867.31;;;9.26;81.49
76352;BME280;65179;47.786;19.138;2023-04-01T03:15:03;98870.50;;;9.23;81.59
76352;BME280;65179;47.786;19.138;2023-04-01T03:17:28;98870.66;;;9.16;81.68
76352;BME280;65179;47.786;19.138;2023-04-01T03:19:54;98873.06;;;9.12;81.72
76352;BME280;65179;47.786;19.138;2023-04-01T03:22:19;98861.56;;;9.05;81.81
76352;BME280;65179;47.786;19.138;2023-04-01T03:24:47;98865.37;;;9.04;81.94
76352;BME280;65179;47.786;19.138;2023-04-01T03:27:13;98865.37;;;9.04;81.89
76352;BME280;65179;47.786;19.138;2023-04-01T03:29:38;98853.97;;;9.02;81.74
76352;BME280;65179;47.786;19.138;2023-04-01T03:32:04;98854.69;;;8.98;81.84
76352;BME280;65179;47.786;19.138;2023-04-01T03:34:30;98857.06;;;8.94;81.91
76352;BME280;65179;47.786;19.138;2023-04-01T03:36:56;98860.84;;;8.93;81.83
76352;BME280;65179;47.786;19.138;2023-04-01T03:39:21;98865.28;;;8.83;82.31
76352;BME280;65179;47.786;19.138;2023-04-01T03:41:47;98873.87;;;8.80;82.26
76352;BME280;65179;47.786;19.138;2023-04-01T03:44:13;98872.59;;;8.82;82.37
76352;BME280;65179;47.786;19.138;2023-04-01T03:46:39;98888.00;;;8.82;82.32
76352;BME280;65179;47.786;19.138;2023-04-01T03:49:09;98899.66;;;8.82;82.46
76352;BME280;65179;47.786;19.138;2023-04-01T03:51:39;98892.09;;;8.84;82.50
76352;BME280;65179;47.786;19.138;2023-04-01T03:54:05;98884.91;;;8.90;82.55
76352;BME280;65179;47.786;19.138;2023-04-01T03:56:31;98894.91;;;8.89;82.72
76352;BME280;65179;47.786;19.138;2023-04-01T03:58:56;98904.66;;;8.90;82.57
76352;BME280;65179;47.786;19.138;2023-04-01T04:01:22;98907.34;;;8.90;82.54
76352;BME280;65179;47.786;19.138;2023-04-01T04:03:48;98913.34;;;8.92;82.57
76352;BME280;65179;47.786;19.138;2023-04-01T04:06:15;98913.84;;;8.89;82.70
76352;BME280;65179;47.786;19.138;2023-04-01T04:08:41;98905.16;;;8.87;82.50
76352;BME280;65179;47.786;19.138;2023-04-01T04:11:07;98914.00;;;8.83;82.45
76352;BME280;65179;47.786;19.138;2023-04-01T04:13:32;98919.16;;;8.84;82.23
76352;BME280;65179;47.786;19.138;2023-04-01T04:15:58;98917.53;;;8.83;82.28
76352;BME280;65179;47.786;19.138;2023-04-01T04:18:23;98918.50;;;8.77;82.31
76352;BME280;65179;47.786;19.138;2023-04-01T04:20:49;98915.88;;;8.66;82.47
76352;BME280;65179;47.786;19.138;2023-04-01T04:23:16;98929.00;;;8.74;82.32
76352;BME280;65179;47.786;19.138;2023-04-01T04:25:53;98927.28;;;8.68;82.16
76352;BME280;65179;47.786;19.138;2023-04-01T04:28:19;98926.19;;;8.69;82.20
76352;BME280;65179;47.786;19.138;2023-04-01T04:30:44;98920.22;;;8.67;82.20
76352;BME280;65179;47.786;19.138;2023-04-01T04:33:10;98919.47;;;8.71;82.19
76352;BME280;65179;47.786;19.138;2023-04-01T04:35:35;98924.63;;;8.73;82.15
76352;BME280;65179;47.786;19.138;2023-04-01T04:38:00;98906.06;;;8.76;82.22
76352;BME280;65179;47.786;19.138;2023-04-01T04:40:26;98910.16;;;8.79;81.95
76352;BME280;65179;47.786;19.138;2023-04-01T04:42:51;98907.66;;;8.77;82.09
76352;BME280;65179;47.786;19.138;2023-04-01T04:45:17;98898.41;;;8.73;82.15
76352;BME280;65179;47.786;19.138;2023-04-01T04:47:42;98901.94;;;8.74;82.11
76352;BME280;65179;47.786;19.138;2023-04-01T04:50:08;98911.47;;;8.76;82.03
76352;BME280;65179;47.786;19.138;2023-04-01T04:52:33;98912.75;;;8.74;82.24
76352;BME280;65179;47.786;19.138;2023-04-01T04:54:59;98909.97;;;8.69;82.18
76352;BME280;65179;47.786;19.138;2023-04-01T04:57:24;98912.09;;;8.67;82.37
76352;BME280;65179;47.786;19.138;2023-04-01T04:59:50;98919.06;;;8.63;82.69
76352;BME280;65179;47.786;19.138;2023-04-01T05:02:15;98915.53;;;8.62;82.89
76352;BME280;65179;47.786;19.138;2023-04-01T05:04:40;98919.63;;;8.65;82.62
76352;BME280;65179;47.786;19.138;2023-04-01T05:07:06;98920.47;;;8.65;82.77
76352;BME280;65179;47.786;19.138;2023-04-01T05:09:31;98919.72;;;8.70;82.66
76352;BME280;65179;47.786;19.138;2023-04-01T05:11:58;98912.75;;;8.74;82.58
76352;BME280;65179;47.786;19.138;2023-04-01T05:14:23;98910.63;;;8.76;82.49
76352;BME280;65179;47.786;19.138;2023-04-01T05:16:49;98893.91;;;8.79;82.33
76352;BME280;65179;47.786;19.138;2023-04-01T05:19:15;98905.38;;;8.86;82.27
76352;BME280;65179;47.786;19.138;2023-04-01T05:21:41;98896.06;;;8.93;82.20
76352;BME280;65179;47.786;19.138;2023-04-01T05:24:09;98901.22;;;8.95;81.96
76352;BME280;65179;47.786;19.138;2023-04-01T05:26:35;98902.69;;;9.02;81.95
76352;BME280;65179;47.786;19.138;2023-04-01T05:29:02;98904.91;;;9.05;82.10
76352;BME280;65179;47.786;19.138;2023-04-01T05:31:28;98902.75;;;9.07;81.99
76352;BME280;65179;47.786;19.138;2023-04-01T05:33:53;98908.84;;;9.14;81.94
76352;BME280;65179;47.786;19.138;2023-04-01T05:36:19;98917.06;;;9.20;81.61
76352;BME280;65179;47.786;19.138;2023-04-01T05:38:44;98907.38;;;9.24;81.41
76352;BME280;65179;47.786;19.138;2023-04-01T05:41:14;98906.88;;;9.27;81.25
76352;BME280;65179;47.786;19.138;2023-04-01T05:43:41;98907.47;;;9.29;81.15
76352;BME280;65179;47.786;19.138;2023-04-01T05:46:07;98910.31;;;9.39;81.00
76352;BME280;65179;47.786;19.138;2023-04-01T05:48:33;98918.25;;;9.45;80.39
76352;BME280;65179;47.786;19.138;2023-04-01T05:51:00;98917.03;;;9.53;80.41
76352;BME280;65179;47.786;19.138;2023-04-01T05:53:26;98913.25;;;9.54;80.12
76352;BME280;65179;47.786;19.138;2023-04-01T05:55:51;98921.50;;;9.64;80.15
76352;BME280;65179;47.786;19.138;2023-04-01T05:58:16;98924.88;;;9.71;79.89
76352;BME280;65179;47.786;19.138;2023-04-01T06:00:42;98923.06;;;9.76;79.67
76352;BME280;65179;47.786;19.138;2023-04-01T06:03:08;98925.50;;;9.78;79.25
76352;BME280;65179;47.786;19.138;2023-04-01T06:05:43;98931.00;;;9.83;78.66
76352;BME280;65179;47.786;19.138;2023-04-01T06:08:14;98924.59;;;9.89;78.43
76352;BME280;65179;47.786;19.138;2023-04-01T06:24:11;98923.41;;;10.23;76.81
76352;BME280;65179;47.786;19.138;2023-04-01T06:45:55;98925.34;;;10.49;74.36
76352;BME280;65179;47.786;19.138;2023-04-01T06:56:17;98925.09;;;10.78;74.33
76352;BME280;65179;47.786;19.138;2023-04-01T06:59:12;98920.22;;;10.80;73.90
76352;BME280;65179;47.786;19.138;2023-04-01T07:01:45;98919.50;;;10.89;73.30
76352;BME280;65179;47.786;19.138;2023-04-01T07:04:43;98910.63;;;10.99;72.98
76352;BME280;65179;47.786;19.138;2023-04-01T07:07:33;98908.84;;;11.14;72.81
76352;BME280;65179;47.786;19.138;2023-04-01T07:10:04;98916.78;;;11.21;72.21
76352;BME280;65179;47.786;19.138;2023-04-01T07:14:58;98920.94;;;11.33;71.00
76352;BME280;65179;47.786;19.138;2023-04-01T07:17:35;98919.94;;;11.44;71.27
76352;BME280;65179;47.786;19.138;2023-04-01T07:20:05;98916.25;;;11.61;70.80
76352;BME280;65179;47.786;19.138;2023-04-01T07:22:42;98915.00;;;11.78;70.65
76352;BME280;65179;47.786;19.138;2023-04-01T07:27:38;98918.59;;;11.84;70.19
76352;BME280;65179;47.786;19.138;2023-04-01T07:30:14;98920.22;;;11.85;69.47
76352;BME280;65179;47.786;19.138;2023-04-01T07:33:19;98916.69;;;11.84;69.63
76352;BME280;65179;47.786;19.138;2023-04-01T07:40:56;98925.81;;;12.10;68.17
76352;BME280;65179;47.786;19.138;2023-04-01T07:46:32;98923.34;;;12.13;67.70
76352;BME280;65179;47.786;19.138;2023-04-01T07:49:33;98919.28;;;12.16;68.32
76352;BME280;65179;47.786;19.138;2023-04-01T07:52:12;98919.03;;;12.17;67.18
76352;BME280;65179;47.786;19.138;2023-04-01T07:57:30;98924.50;;;12.23;65.14
76352;BME280;65179;47.786;19.138;2023-04-01T08:00:15;98929.69;;;12.29;65.25
76352;BME280;65179;47.786;19.138;2023-04-01T08:08:23;98928.34;;;12.37;64.73
76352;BME280;65179;47.786;19.138;2023-04-01T08:21:55;98940.19;;;12.98;63.88
76352;BME280;65179;47.786;19.138;2023-04-01T08:24:43;98932.00;;;12.82;64.21
76352;BME280;65179;47.786;19.138;2023-04-01T08:27:35;98939.88;;;12.74;65.49
76352;BME280;65179;47.786;19.138;2023-04-01T08:30:14;98948.59;;;12.66;65.68
76352;BME280;65179;47.786;19.138;2023-04-01T08:32:48;98941.47;;;12.45;65.79
76352;BME280;65179;47.786;19.138;2023-04-01T08:38:07;98948.03;;;12.59;66.28
76352;BME280;65179;47.786;19.138;2023-04-01T08:41:10;98950.75;;;12.54;65.99
76352;BME280;65179;47.786;19.138;2023-04-01T08:46:28;98955.38;;;12.63;65.82
76352;BME280;65179;47.786;19.138;2023-04-01T08:52:09;98964.94;;;12.66;65.52
76352;BME280;65179;47.786;19.138;2023-04-01T08:55:04;98954.88;;;12.66;65.40
76352;BME280;65179;47.786;19.138;2023-04-01T09:00:52;98950.00;;;12.83;64.77
76352;BME280;65179;47.786;19.138;2023-04-01T09:16:58;98939.25;;;14.33;59.67
76352;BME280;65179;47.786;19.138;2023-04-01T09:19:41;98949.91;;;14.24;59.19
76352;BME280;65179;47.786;19.138;2023-04-01T09:27:48;98952.41;;;14.06;60.02
76352;BME280;65179;47.786;19.138;2023-04-01T09:35:48;98950.59;;;13.71;61.07
76352;BME280;65179;47.786;19.138;2023-04-01T09:46:55;98943.44;;;13.95;60.75
76352;BME280;65179;47.786;19.138;2023-04-01T09:49:40;98942.06;;;14.03;60.12
76352;BME280;65179;47.786;19.138;2023-04-01T09:52:30;98935.50;;;14.09;59.48
76352;BME280;65179;47.786;19.138;2023-04-01T10:00:55;98939.44;;;14.52;57.52
76352;BME280;65179;47.786;19.138;2023-04-01T10:09:42;98946.25;;;14.54;57.17
76352;BME280;65179;47.786;19.138;2023-04-01T10:30:13;98951.44;;;14.61;57.39
76352;BME280;65179;47.786;19.138;2023-04-01T10:37:50;98955.66;;;15.26;56.17
76352;BME280;65179;47.786;19.138;2023-04-01T10:54:21;98942.72;;;15.70;55.83
76352;BME280;65179;47.786;19.138;2023-04-01T10:56:59;98940.19;;;15.50;56.64
76352;BME280;65179;47.786;19.138;2023-04-01T11:27:34;98934.63;;;16.78;49.53
76352;BME280;65179;47.786;19.138;2023-04-01T11:46:10;98934.66;;;16.07;51.25
76352;BME280;65179;47.786;19.138;2023-04-01T11:55:05;98934.22;;;15.04;54.21
76352;BME280;65179;47.786;19.138;2023-04-01T12:03:46;98945.06;;;16.95;49.79
76352;BME280;65179;47.786;19.138;2023-04-01T12:09:40;98948.00;;;17.35;48.77
76352;BME280;65179;47.786;19.138;2023-04-01T12:12:36;98942.56;;;17.17;49.29
76352;BME280;65179;47.786;19.138;2023-04-01T12:15:32;98949.81;;;17.77;47.71
76352;BME280;65179;47.786;19.138;2023-04-01T12:20:49;98945.06;;;16.95;47.88
76352;BME280;65179;47.786;19.138;2023-04-01T12:23:28;98938.69;;;16.99;47.92
76352;BME280;65179;47.786;19.138;2023-04-01T12:34:31;98930.84;;;18.49;44.51
76352;BME280;65179;47.786;19.138;2023-04-01T12:37:20;98937.53;;;18.70;44.66
76352;BME280;65179;47.786;19.138;2023-04-01T12:45:34;98940.72;;;18.50;43.93
76352;BME280;65179;47.786;19.138;2023-04-01T12:56:03;98922.16;;;19.05;42.58
76352;BME280;65179;47.786;19.138;2023-04-01T13:28:30;98902.38;;;19.16;41.05
76352;BME280;65179;47.786;19.138;2023-04-01T13:34:05;98911.34;;;19.08;40.61
76352;BME280;65179;47.786;19.138;2023-04-01T13:47:41;98910.28;;;18.46;41.44
76352;BME280;65179;47.786;19.138;2023-04-01T13:55:46;98907.84;;;18.45;40.23
76352;BME280;65179;47.786;19.138;2023-04-01T13:58:43;98923.09;;;18.10;41.30
76352;BME280;65179;47.786;19.138;2023-04-01T14:01:31;98914.88;;;17.64;41.67
76352;BME280;65179;47.786;19.138;2023-04-01T14:06:49;98914.53;;;17.52;42.35
76352;BME280;65179;47.786;19.138;2023-04-01T14:12:27;98911.94;;;17.74;41.99
76352;BME280;65179;47.786;19.138;2023-04-01T14:18:08;98912.81;;;17.88;41.77
76352;BME280;65179;47.786;19.138;2023-04-01T14:31:43;98927.88;;;17.08;44.22
76352;BME280;65179;47.786;19.138;2023-04-01T14:49:04;98949.25;;;15.74;48.87
76352;BME280;65179;47.786;19.138;2023-04-01T14:51:40;98949.53;;;15.72;49.12
76352;BME280;65179;47.786;19.138;2023-04-01T14:54:16;98948.66;;;15.77;48.93
76352;BME280;65179;47.786;19.138;2023-04-01T14:57:15;98952.94;;;15.88;48.72
76352;BME280;65179;47.786;19.138;2023-04-01T14:59:53;98952.66;;;15.61;48.73
76352;BME280;65179;47.786;19.138;2023-04-01T15:02:28;98948.34;;;15.55;48.28
76352;BME280;65179;47.786;19.138;2023-04-01T15:05:10;98944.00;;;15.49;47.74
76352;BME280;65179;47.786;19.138;2023-04-01T15:07:58;98946.03;;;15.67;47.48
76352;BME280;65179;47.786;19.138;2023-04-01T15:24:50;98941.47;;;15.86;47.59
76352;BME280;65179;47.786;19.138;2023-04-01T16:12:53;98979.34;;;15.40;50.45
76352;BME280;65179;47.786;19.138;2023-04-01T16:23:56;98994.56;;;15.56;50.55
76352;BME280;65179;47.786;19.138;2023-04-01T16:34:30;98991.62;;;15.48;49.88
76352;BME280;65179;47.786;19.138;2023-04-01T16:37:10;98998.47;;;15.45;49.79
76352;BME280;65179;47.786;19.138;2023-04-01T16:39:47;99006.12;;;15.48;49.99
76352;BME280;65179;47.786;19.138;2023-04-01T16:42:38;98996.03;;;15.39;49.45
76352;BME280;65179;47.786;19.138;2023-04-01T16:45:15;99002.37;;;15.34;49.31
76352;BME280;65179;47.786;19.138;2023-04-01T16:47:52;99006.75;;;15.35;49.01
76352;BME280;65179;47.786;19.138;2023-04-01T16:58:37;99017.53;;;15.16;50.45
76352;BME280;65179;47.786;19.138;2023-04-01T17:01:16;99014.88;;;15.06;50.46
76352;BME280;65179;47.786;19.138;2023-04-01T17:03:57;99021.84;;;14.79;50.69
76352;BME280;65179;47.786;19.138;2023-04-01T17:06:53;99019.91;;;14.84;51.06
76352;BME280;65179;47.786;19.138;2023-04-01T17:09:43;99025.72;;;14.68;51.29
76352;BME280;65179;47.786;19.138;2023-04-01T17:12:34;99036.66;;;14.58;51.61
76352;BME280;65179;47.786;19.138;2023-04-01T17:18:05;99039.97;;;14.55;52.37
76352;BME280;65179;47.786;19.138;2023-04-01T17:23:51;99040.84;;;14.30;53.00
76352;BME280;65179;47.786;19.138;2023-04-01T17:26:48;99052.03;;;14.23;53.20
76352;BME280;65179;47.786;19.138;2023-04-01T17:29:24;99050.94;;;14.24;54.05
76352;BME280;65179;47.786;19.138;2023-04-01T17:32:12;99048.75;;;14.26;53.54
76352;BME280;65179;47.786;19.138;2023-04-01T17:35:05;99038.94;;;14.20;53.69
76352;BME280;65179;47.786;19.138;2023-04-01T17:40:33;99058.06;;;14.20;53.65
76352;BME280;65179;47.786;19.138;2023-04-01T17:45:52;99050.16;;;14.14;54.14
76352;BME280;65179;47.786;19.138;2023-04-01T17:55:20;99059.47;;;13.88;54.68
76352;BME280;65179;47.786;19.138;2023-04-01T17:58:00;99062.19;;;13.83;55.08
76352;BME280;65179;47.786;19.138;2023-04-01T18:07:07;99060.53;;;13.72;55.14
76352;BME280;65179;47.786;19.138;2023-04-01T18:12:56;99061.09;;;13.48;55.74
76352;BME280;65179;47.786;19.138;2023-04-01T18:15:37;99059.72;;;13.51;55.80
76352;BME280;65179;47.786;19.138;2023-04-01T18:24:24;99068.16;;;13.44;55.67
76352;BME280;65179;47.786;19.138;2023-04-01T18:32:43;99073.56;;;13.24;56.61
76352;BME280;65179;47.786;19.138;2023-04-01T18:35:21;99083.69;;;13.29;56.61
76352;BME280;65179;47.786;19.138;2023-04-01T18:37:59;99083.94;;;13.32;56.46
76352;BME280;65179;47.786;19.138;2023-04-01T18:41:04;99082.81;;;13.23;56.39
76352;BME280;65179;47.786;19.138;2023-04-01T18:49:39;99090.72;;;13.10;56.90
76352;BME280;65179;47.786;19.138;2023-04-01T18:52:40;99091.81;;;13.14;56.94
76352;BME280;65179;47.786;19.138;2023-04-01T18:57:49;99105.72;;;13.12;56.97
76352;BME280;65179;47.786;19.138;2023-04-01T19:00:39;99105.69;;;13.07;57.43
76352;BME280;65179;47.786;19.138;2023-04-01T19:05:42;99118.13;;;12.88;58.16
76352;BME280;65179;47.786;19.138;2023-04-01T19:08:31;99119.19;;;12.82;58.27
76352;BME280;65179;47.786;19.138;2023-04-01T19:11:24;99124.66;;;12.82;58.58
76352;BME280;65179;47.786;19.138;2023-04-01T19:16:46;99115.91;;;12.85;58.40
76352;BME280;65179;47.786;19.138;2023-04-01T19:21:58;99122.72;;;12.82;58.81
76352;BME280;65179;47.786;19.138;2023-04-01T19:27:36;99121.38;;;12.85;58.82
76352;BME280;65179;47.786;19.138;2023-04-01T19:35:47;99126.19;;;12.68;58.94
76352;BME280;65179;47.786;19.138;2023-04-01T19:38:36;99121.22;;;12.55;59.31
76352;BME280;65179;47.786;19.138;2023-04-01T19:43:54;99117.87;;;12.43;59.51
76352;BME280;65179;47.786;19.138;2023-04-01T19:54:34;99123.69;;;12.19;60.53
76352;BME280;65179;47.786;19.138;2023-04-01T19:59:50;99130.50;;;12.17;60.50
76352;BME280;65179;47.786;19.138;2023-04-01T20:02:28;99130.25;;;12.24;60.45
76352;BME280;65179;47.786;19.138;2023-04-01T20:04:59;99136.75;;;12.17;60.72
76352;BME280;65179;47.786;19.138;2023-04-01T20:07:45;99136.19;;;12.15;60.73
76352;BME280;65179;47.786;19.138;2023-04-01T20:10:17;99135.34;;;12.10;60.83
76352;BME280;65179;47.786;19.138;2023-04-01T20:15:36;99131.56;;;12.16;60.85
76352;BME280;65179;47.786;19.138;2023-04-01T20:20:41;99137.00;;;12.16;60.80
76352;BME280;65179;47.786;19.138;2023-04-01T20:23:30;99135.62;;;12.13;60.76
76352;BME280;65179;47.786;19.138;2023-04-01T20:26:07;99134.56;;;12.14;60.64
76352;BME280;65179;47.786;19.138;2023-04-01T20:34:21;99144.88;;;12.12;61.27
76352;BME280;65179;47.786;19.138;2023-04-01T20:37:56;99148.13;;;12.09;60.99
76352;BME280;65179;47.786;19.138;2023-04-01T20:39:54;99150.72;;;11.94;62.05
76352;BME280;65179;47.786;19.138;2023-04-01T20:45:21;99154.37;;;11.78;62.62
76352;BME280;65179;47.786;19.138;2023-04-01T20:50:58;99160.00;;;11.72;63.11
76352;BME280;65179;47.786;19.138;2023-04-01T21:07:20;99177.53;;;11.32;64.50
76352;BME280;65179;47.786;19.138;2023-04-01T21:15:41;99183.66;;;11.23;64.57
76352;BME280;65179;47.786;19.138;2023-04-01T21:24:33;99181.69;;;11.18;65.12
76352;BME280;65179;47.786;19.138;2023-04-01T21:27:16;99197.25;;;11.23;65.08
76352;BME280;65179;47.786;19.138;2023-04-01T21:29:55;99196.66;;;11.21;64.72
76352;BME280;65179;47.786;19.138;2023-04-01T21:40:57;99194.91;;;11.10;65.01
76352;BME280;65179;47.786;19.138;2023-04-01T21:43:05;99204.19;;;11.14;64.97
76352;BME280;65179;47.786;19.138;2023-04-01T21:53:49;99213.03;;;11.04;65.55
76352;BME280;65179;47.786;19.138;2023-04-01T22:06:56;99215.37;;;10.96;65.86
76352;BME280;65179;47.786;19.138;2023-04-01T22:09:42;99215.28;;;10.91;66.06
76352;BME280;65179;47.786;19.138;2023-04-01T22:12:19;99222.66;;;10.74;66.72
76352;BME280;65179;47.786;19.138;2023-04-01T22:14:55;99216.72;;;10.77;66.67
76352;BME280;65179;47.786;19.138;2023-04-01T22:23:20;99217.22;;;10.74;66.70
76352;BME280;65179;47.786;19.138;2023-04-01T22:29:11;99230.56;;;10.58;67.51
76352;BME280;65179;47.786;19.138;2023-04-01T22:34:48;99227.34;;;10.61;67.17
76352;BME280;65179;47.786;19.138;2023-04-01T22:37:23;99228.59;;;10.54;67.43
76352;BME280;65179;47.786;19.138;2023-04-01T22:40:10;99233.28;;;10.58;67.32
76352;BME280;65179;47.786;19.138;2023-04-01T22:48:28;99235.81;;;10.48;67.87
76352;BME280;65179;47.786;19.138;2023-04-01T22:56:26;99240.94;;;10.28;68.75
76352;BME280;65179;47.786;19.138;2023-04-01T23:01:36;99246.19;;;10.18;68.90
76352;BME280;65179;47.786;19.138;2023-04-01T23:04:05;99253.28;;;10.08;69.01
76352;BME280;65179;47.786;19.138;2023-04-01T23:06:37;99258.38;;;10.04;69.33
76352;BME280;65179;47.786;19.138;2023-04-01T23:09:17;99251.09;;;10.05;69.22
76352;BME280;65179;47.786;19.138;2023-04-01T23:16:51;99269.97;;;10.00;69.11
76352;BME280;65179;47.786;19.138;2023-04-01T23:35:48;99281.72;;;9.77;69.17
76352;BME280;65179;47.786;19.138;2023-04-01T23:38:15;99284.69;;;9.75;69.40
76352;BME280;65179;47.786;19.138;2023-04-01T23:40:41;99282.69;;;9.71;69.42
76352;BME280;65179;47.786;19.138;2023-04-01T23:43:15;99294.84;;;9.68;69.37
76352;BME280;65179;47.786;19.138;2023-04-01T23:45:46;99292.03;;;9.63;69.49
76352;BME280;65179;47.786;19.138;2023-04-01T23:48:15;99297.09;;;9.60;69.52
76352;BME280;65179;47.786;19.138;2023-04-01T23:50:41;99294.97;;;9.62;69.48
76352;BME280;65179;47.786;19.138;2023-04-01T23:53:17;99292.03;;;9.63;69.56
76352;BME280;65179;47.786;19.138;2023-04-01T23:55:43;99302.66;;;9.53;69.83
